SCCI/PUQ METAR and TAF weather

Enter ICAO airport designator
Station Type Date Time Source
SCCI METAR 2020/07/04 09:00 UTC NOAA

SCCI 040900Z AUTO 02003KT 9999 FEW006/// SCT024/// OVC033/// 02/01 Q1013


Station Type Date Time Source
SCCI Decoded METAR 2020/07/04 09:00 UTC NOAA

Punta Arenas, Chile (SCCI) 53-00S 070-51W 33M
Jul 04, 2020 - 05:00 AM EDT / 2020.07.04 0900 UTC
Wind: from the NNE (020 degrees) at 3 MPH (3 KT):0
Visibility: greater than 7 mile(s):0
Sky conditions: overcast
Temperature: 35 F (2 C)
Dew Point: 33 F (1 C)
Relative Humidity: 93%
Pressure (altimeter): 29.91 in. Hg (1013 hPa)
ob: SCCI 040900Z AUTO 02003KT 9999 FEW006/// SCT024/// OVC033/// 02/01 Q1013
cycle: 9

Station Type Date Time Source
SCCI TAF 2020/07/04 06:03 UTC NOAA

TAF SCCI 040450Z 0406/0506 33003KT 1200 BR BKN004 TX02/0418Z TNM01/0411Z
TEMPO 0406/0413 03004KT 0700 -RASN FG BKN002
BECMG 0413/0415 02004KT 2500 BR BKN008
BECMG 0419/0421 BKN020
BECMG 0500/0502 8000 -SN BKN020

Example: see airport list